sensor_id;sensor_type;location;lat;lon;timestamp;P1;durP1;ratioP1;P2;durP2;ratioP2
31596;SDS011;18201;50.978;7.034;2023-03-24T00:00:24;3.42;;;2.28;;
31596;SDS011;18201;50.978;7.034;2023-03-24T00:00:57;3.40;;;2.22;;
31596;SDS011;18201;50.978;7.034;2023-03-24T00:01:30;3.30;;;2.00;;
31596;SDS011;18201;50.978;7.034;2023-03-24T00:02:01;3.80;;;2.42;;
31596;SDS011;18201;50.978;7.034;2023-03-24T00:02:33;3.30;;;2.10;;
31596;SDS011;18201;50.978;7.034;2023-03-24T00:03:08;2.70;;;2.40;;
31596;SDS011;18201;50.978;7.034;2023-03-24T00:03:40;3.40;;;2.30;;
31596;SDS011;18201;50.978;7.034;2023-03-24T00:04:10;2.97;;;2.67;;
31596;SDS011;18201;50.978;7.034;2023-03-24T00:04:42;3.58;;;3.20;;
31596;SDS011;18201;50.978;7.034;2023-03-24T00:05:15;4.90;;;3.40;;
31596;SDS011;18201;50.978;7.034;2023-03-24T00:05:53;5.88;;;3.63;;
31596;SDS011;18201;50.978;7.034;2023-03-24T00:06:24;3.70;;;2.70;;
31596;SDS011;18201;50.978;7.034;2023-03-24T00:06:56;4.70;;;2.70;;
31596;SDS011;18201;50.978;7.034;2023-03-24T00:07:27;10.75;;;2.75;;
31596;SDS011;18201;50.978;7.034;2023-03-24T00:07:59;3.70;;;2.67;;
31596;SDS011;18201;50.978;7.034;2023-03-24T00:08:32;4.05;;;2.70;;
31596;SDS011;18201;50.978;7.034;2023-03-24T00:09:05;3.50;;;2.78;;
31596;SDS011;18201;50.978;7.034;2023-03-24T00:09:36;3.75;;;2.67;;
31596;SDS011;18201;50.978;7.034;2023-03-24T00:10:09;2.97;;;2.30;;
31596;SDS011;18201;50.978;7.034;2023-03-24T00:10:43;4.75;;;2.97;;
31596;SDS011;18201;50.978;7.034;2023-03-24T00:11:16;3.47;;;3.15;;
31596;SDS011;18201;50.978;7.034;2023-03-24T00:11:48;2.60;;;2.40;;
31596;SDS011;18201;50.978;7.034;2023-03-24T00:12:19;3.97;;;3.05;;
31596;SDS011;18201;50.978;7.034;2023-03-24T00:12:51;5.07;;;2.90;;
31596;SDS011;18201;50.978;7.034;2023-03-24T00:13:22;3.58;;;2.85;;
31596;SDS011;18201;50.978;7.034;2023-03-24T00:13:53;3.47;;;3.10;;
31596;SDS011;18201;50.978;7.034;2023-03-24T00:14:27;4.50;;;3.10;;
31596;SDS011;18201;50.978;7.034;2023-03-24T00:14:59;4.55;;;3.30;;
31596;SDS011;18201;50.978;7.034;2023-03-24T00:15:31;7.00;;;3.20;;
31596;SDS011;18201;50.978;7.034;2023-03-24T00:16:05;3.63;;;3.30;;
31596;SDS011;18201;50.978;7.034;2023-03-24T00:16:38;3.63;;;3.30;;
31596;SDS011;18201;50.978;7.034;2023-03-24T00:17:11;9.73;;;3.88;;
31596;SDS011;18201;50.978;7.034;2023-03-24T00:17:46;3.58;;;3.00;;
31596;SDS011;18201;50.978;7.034;2023-03-24T00:18:20;3.05;;;2.60;;
31596;SDS011;18201;50.978;7.034;2023-03-24T00:18:55;3.97;;;3.30;;
31596;SDS011;18201;50.978;7.034;2023-03-24T00:19:27;3.22;;;2.70;;
31596;SDS011;18201;50.978;7.034;2023-03-24T00:19:58;3.83;;;2.42;;
31596;SDS011;18201;50.978;7.034;2023-03-24T00:20:29;5.15;;;2.78;;
31596;SDS011;18201;50.978;7.034;2023-03-24T00:21:02;4.88;;;2.88;;
31596;SDS011;18201;50.978;7.034;2023-03-24T00:21:33;2.75;;;2.55;;
31596;SDS011;18201;50.978;7.034;2023-03-24T00:22:06;3.42;;;3.13;;
31596;SDS011;18201;50.978;7.034;2023-03-24T00:22:48;4.85;;;3.30;;
31596;SDS011;18201;50.978;7.034;2023-03-24T00:23:26;3.45;;;2.88;;
31596;SDS011;18201;50.978;7.034;2023-03-24T00:24:01;3.75;;;2.88;;
31596;SDS011;18201;50.978;7.034;2023-03-24T00:24:34;4.03;;;2.65;;
31596;SDS011;18201;50.978;7.034;2023-03-24T00:25:05;4.38;;;3.38;;
31596;SDS011;18201;50.978;7.034;2023-03-24T00:25:37;4.47;;;2.90;;
31596;SDS011;18201;50.978;7.034;2023-03-24T00:26:10;2.92;;;2.17;;
31596;SDS011;18201;50.978;7.034;2023-03-24T00:26:44;4.07;;;2.70;;
31596;SDS011;18201;50.978;7.034;2023-03-24T00:27:17;3.22;;;2.90;;
31596;SDS011;18201;50.978;7.034;2023-03-24T00:27:49;4.18;;;2.70;;
31596;SDS011;18201;50.978;7.034;2023-03-24T00:28:20;3.95;;;2.45;;
31596;SDS011;18201;50.978;7.034;2023-03-24T00:28:52;3.80;;;2.50;;
31596;SDS011;18201;50.978;7.034;2023-03-24T00:29:23;2.92;;;2.40;;
31596;SDS011;18201;50.978;7.034;2023-03-24T00:29:54;2.63;;;1.98;;
31596;SDS011;18201;50.978;7.034;2023-03-24T00:30:28;2.53;;;2.08;;
31596;SDS011;18201;50.978;7.034;2023-03-24T00:30:59;2.78;;;2.05;;
31596;SDS011;18201;50.978;7.034;2023-03-24T00:31:31;2.42;;;2.20;;
31596;SDS011;18201;50.978;7.034;2023-03-24T00:32:03;3.10;;;2.22;;
31596;SDS011;18201;50.978;7.034;2023-03-24T00:32:35;1.95;;;1.85;;
31596;SDS011;18201;50.978;7.034;2023-03-24T00:33:07;3.47;;;1.90;;
31596;SDS011;18201;50.978;7.034;2023-03-24T00:33:42;3.55;;;2.15;;
31596;SDS011;18201;50.978;7.034;2023-03-24T00:34:17;2.42;;;2.20;;
31596;SDS011;18201;50.978;7.034;2023-03-24T00:34:50;4.25;;;2.20;;
31596;SDS011;18201;50.978;7.034;2023-03-24T00:35:23;2.83;;;1.88;;
31596;SDS011;18201;50.978;7.034;2023-03-24T00:35:54;2.85;;;2.47;;
31596;SDS011;18201;50.978;7.034;2023-03-24T00:36:26;4.28;;;2.53;;
31596;SDS011;18201;50.978;7.034;2023-03-24T00:36:59;3.50;;;2.28;;
31596;SDS011;18201;50.978;7.034;2023-03-24T00:37:30;3.22;;;2.58;;
31596;SDS011;18201;50.978;7.034;2023-03-24T00:38:01;3.17;;;1.90;;
31596;SDS011;18201;50.978;7.034;2023-03-24T00:38:33;4.28;;;2.65;;
31596;SDS011;18201;50.978;7.034;2023-03-24T00:39:05;2.10;;;1.90;;
31596;SDS011;18201;50.978;7.034;2023-03-24T00:39:37;2.88;;;2.45;;
31596;SDS011;18201;50.978;7.034;2023-03-24T00:40:11;2.65;;;2.40;;
31596;SDS011;18201;50.978;7.034;2023-03-24T00:40:45;2.35;;;2.15;;
31596;SDS011;18201;50.978;7.034;2023-03-24T00:41:19;6.18;;;2.30;;
31596;SDS011;18201;50.978;7.034;2023-03-24T00:41:51;4.25;;;2.30;;
31596;SDS011;18201;50.978;7.034;2023-03-24T00:42:22;3.08;;;1.85;;
31596;SDS011;18201;50.978;7.034;2023-03-24T00:42:54;2.65;;;2.17;;
31596;SDS011;18201;50.978;7.034;2023-03-24T00:43:25;4.68;;;2.55;;
31596;SDS011;18201;50.978;7.034;2023-03-24T00:43:57;2.20;;;2.00;;
31596;SDS011;18201;50.978;7.034;2023-03-24T00:44:32;3.97;;;1.90;;
31596;SDS011;18201;50.978;7.034;2023-03-24T00:45:04;2.95;;;1.90;;
31596;SDS011;18201;50.978;7.034;2023-03-24T00:45:36;3.67;;;2.22;;
31596;SDS011;18201;50.978;7.034;2023-03-24T00:46:15;3.05;;;2.13;;
31596;SDS011;18201;50.978;7.034;2023-03-24T00:46:57;3.17;;;2.00;;
31596;SDS011;18201;50.978;7.034;2023-03-24T00:47:30;5.32;;;2.08;;
31596;SDS011;18201;50.978;7.034;2023-03-24T00:48:05;3.40;;;2.00;;
31596;SDS011;18201;50.978;7.034;2023-03-24T00:48:36;2.80;;;2.22;;
31596;SDS011;18201;50.978;7.034;2023-03-24T00:49:12;3.33;;;2.28;;
31596;SDS011;18201;50.978;7.034;2023-03-24T00:49:44;3.42;;;2.10;;
31596;SDS011;18201;50.978;7.034;2023-03-24T00:50:16;3.70;;;2.22;;
31596;SDS011;18201;50.978;7.034;2023-03-24T00:50:50;2.60;;;2.30;;
31596;SDS011;18201;50.978;7.034;2023-03-24T00:51:21;4.05;;;2.28;;
31596;SDS011;18201;50.978;7.034;2023-03-24T00:51:52;4.90;;;2.65;;
31596;SDS011;18201;50.978;7.034;2023-03-24T00:52:27;4.53;;;2.35;;
31596;SDS011;18201;50.978;7.034;2023-03-24T00:53:03;5.53;;;3.17;;
31596;SDS011;18201;50.978;7.034;2023-03-24T00:53:34;4.35;;;2.55;;
31596;SDS011;18201;50.978;7.034;2023-03-24T00:54:05;5.00;;;2.50;;
31596;SDS011;18201;50.978;7.034;2023-03-24T00:54:39;2.50;;;2.30;;
31596;SDS011;18201;50.978;7.034;2023-03-24T00:55:11;4.80;;;2.95;;
31596;SDS011;18201;50.978;7.034;2023-03-24T00:55:43;2.40;;;2.22;;
31596;SDS011;18201;50.978;7.034;2023-03-24T00:56:17;3.05;;;2.70;;
31596;SDS011;18201;50.978;7.034;2023-03-24T00:56:48;4.00;;;2.53;;
31596;SDS011;18201;50.978;7.034;2023-03-24T00:57:19;2.92;;;2.45;;
31596;SDS011;18201;50.978;7.034;2023-03-24T00:57:50;2.80;;;2.20;;
31596;SDS011;18201;50.978;7.034;2023-03-24T00:58:23;2.50;;;2.30;;
31596;SDS011;18201;50.978;7.034;2023-03-24T00:58:55;7.57;;;2.80;;
31596;SDS011;18201;50.978;7.034;2023-03-24T00:59:27;3.30;;;2.72;;
31596;SDS011;18201;50.978;7.034;2023-03-24T01:00:00;2.72;;;2.53;;
31596;SDS011;18201;50.978;7.034;2023-03-24T01:00:40;3.90;;;2.53;;
31596;SDS011;18201;50.978;7.034;2023-03-24T01:01:11;4.55;;;2.38;;
31596;SDS011;18201;50.978;7.034;2023-03-24T01:01:43;2.70;;;2.50;;
31596;SDS011;18201;50.978;7.034;2023-03-24T01:02:14;2.38;;;2.00;;
31596;SDS011;18201;50.978;7.034;2023-03-24T01:02:48;5.25;;;2.67;;
31596;SDS011;18201;50.978;7.034;2023-03-24T01:03:23;3.80;;;2.33;;
31596;SDS011;18201;50.978;7.034;2023-03-24T01:03:56;5.93;;;2.95;;
31596;SDS011;18201;50.978;7.034;2023-03-24T01:04:30;2.85;;;2.13;;
31596;SDS011;18201;50.978;7.034;2023-03-24T01:05:05;3.15;;;2.10;;
31596;SDS011;18201;50.978;7.034;2023-03-24T01:05:38;3.85;;;2.40;;
31596;SDS011;18201;50.978;7.034;2023-03-24T01:06:10;3.78;;;2.50;;
31596;SDS011;18201;50.978;7.034;2023-03-24T01:06:42;3.38;;;2.60;;
31596;SDS011;18201;50.978;7.034;2023-03-24T01:07:14;3.63;;;2.17;;
31596;SDS011;18201;50.978;7.034;2023-03-24T01:07:47;3.20;;;2.58;;
31596;SDS011;18201;50.978;7.034;2023-03-24T01:08:21;4.63;;;2.30;;
31596;SDS011;18201;50.978;7.034;2023-03-24T01:08:52;2.03;;;1.80;;
31596;SDS011;18201;50.978;7.034;2023-03-24T01:09:23;3.13;;;2.28;;
31596;SDS011;18201;50.978;7.034;2023-03-24T01:09:55;2.97;;;2.72;;
31596;SDS011;18201;50.978;7.034;2023-03-24T01:10:35;4.35;;;2.00;;
31596;SDS011;18201;50.978;7.034;2023-03-24T01:11:19;4.57;;;2.20;;
31596;SDS011;18201;50.978;7.034;2023-03-24T01:11:51;2.97;;;2.03;;
31596;SDS011;18201;50.978;7.034;2023-03-24T01:12:23;6.05;;;2.05;;
31596;SDS011;18201;50.978;7.034;2023-03-24T01:12:55;4.07;;;3.05;;
31596;SDS011;18201;50.978;7.034;2023-03-24T01:13:28;3.58;;;2.63;;
31596;SDS011;18201;50.978;7.034;2023-03-24T01:14:01;6.25;;;2.35;;
31596;SDS011;18201;50.978;7.034;2023-03-24T01:14:33;4.13;;;2.53;;
31596;SDS011;18201;50.978;7.034;2023-03-24T01:15:05;3.47;;;2.42;;
31596;SDS011;18201;50.978;7.034;2023-03-24T01:15:39;3.40;;;2.50;;
31596;SDS011;18201;50.978;7.034;2023-03-24T01:16:10;3.58;;;2.33;;
31596;SDS011;18201;50.978;7.034;2023-03-24T01:16:40;2.95;;;2.10;;
31596;SDS011;18201;50.978;7.034;2023-03-24T01:17:12;4.93;;;2.40;;
31596;SDS011;18201;50.978;7.034;2023-03-24T01:17:43;2.33;;;2.13;;
31596;SDS011;18201;50.978;7.034;2023-03-24T01:18:16;2.55;;;2.35;;
31596;SDS011;18201;50.978;7.034;2023-03-24T01:18:47;3.45;;;2.55;;
31596;SDS011;18201;50.978;7.034;2023-03-24T01:19:19;3.75;;;2.55;;
31596;SDS011;18201;50.978;7.034;2023-03-24T01:19:52;3.25;;;2.00;;
31596;SDS011;18201;50.978;7.034;2023-03-24T01:20:23;4.80;;;2.33;;
31596;SDS011;18201;50.978;7.034;2023-03-24T01:20:55;5.15;;;2.90;;
31596;SDS011;18201;50.978;7.034;2023-03-24T01:21:27;2.60;;;2.00;;
31596;SDS011;18201;50.978;7.034;2023-03-24T01:21:58;3.67;;;2.30;;
31596;SDS011;18201;50.978;7.034;2023-03-24T01:22:31;3.25;;;2.03;;
31596;SDS011;18201;50.978;7.034;2023-03-24T01:23:06;5.15;;;2.55;;
31596;SDS011;18201;50.978;7.034;2023-03-24T01:23:38;4.68;;;2.67;;
31596;SDS011;18201;50.978;7.034;2023-03-24T01:24:12;3.53;;;2.60;;
31596;SDS011;18201;50.978;7.034;2023-03-24T01:24:43;3.45;;;2.40;;
31596;SDS011;18201;50.978;7.034;2023-03-24T01:25:14;3.08;;;2.45;;
31596;SDS011;18201;50.978;7.034;2023-03-24T01:25:53;3.58;;;2.22;;
31596;SDS011;18201;50.978;7.034;2023-03-24T01:26:24;2.70;;;1.92;;
31596;SDS011;18201;50.978;7.034;2023-03-24T01:26:55;3.15;;;2.13;;
31596;SDS011;18201;50.978;7.034;2023-03-24T01:27:27;3.58;;;2.78;;
31596;SDS011;18201;50.978;7.034;2023-03-24T01:27:58;2.60;;;2.33;;
31596;SDS011;18201;50.978;7.034;2023-03-24T01:28:29;3.90;;;2.33;;
31596;SDS011;18201;50.978;7.034;2023-03-24T01:29:01;3.92;;;2.63;;
31596;SDS011;18201;50.978;7.034;2023-03-24T01:29:32;2.50;;;2.30;;
31596;SDS011;18201;50.978;7.034;2023-03-24T01:30:03;3.75;;;2.85;;
31596;SDS011;18201;50.978;7.034;2023-03-24T01:30:36;2.58;;;2.08;;
31596;SDS011;18201;50.978;7.034;2023-03-24T01:31:08;3.38;;;2.55;;
31596;SDS011;18201;50.978;7.034;2023-03-24T01:31:40;2.05;;;1.85;;
31596;SDS011;18201;50.978;7.034;2023-03-24T01:32:12;2.65;;;2.42;;
31596;SDS011;18201;50.978;7.034;2023-03-24T01:32:43;4.32;;;2.60;;
31596;SDS011;18201;50.978;7.034;2023-03-24T01:33:14;4.72;;;2.05;;
31596;SDS011;18201;50.978;7.034;2023-03-24T01:33:46;2.70;;;1.85;;
31596;SDS011;18201;50.978;7.034;2023-03-24T01:34:17;2.60;;;2.40;;
31596;SDS011;18201;50.978;7.034;2023-03-24T01:34:48;3.03;;;2.40;;
31596;SDS011;18201;50.978;7.034;2023-03-24T01:35:22;3.70;;;2.55;;
31596;SDS011;18201;50.978;7.034;2023-03-24T01:35:54;2.78;;;2.30;;
31596;SDS011;18201;50.978;7.034;2023-03-24T01:36:25;3.70;;;2.50;;
31596;SDS011;18201;50.978;7.034;2023-03-24T01:36:57;3.58;;;2.00;;
31596;SDS011;18201;50.978;7.034;2023-03-24T01:37:28;2.90;;;2.58;;
31596;SDS011;18201;50.978;7.034;2023-03-24T01:37:59;2.67;;;2.22;;
31596;SDS011;18201;50.978;7.034;2023-03-24T01:38:31;2.47;;;2.15;;
31596;SDS011;18201;50.978;7.034;2023-03-24T01:39:03;2.58;;;2.38;;
31596;SDS011;18201;50.978;7.034;2023-03-24T01:39:34;5.22;;;2.15;;
31596;SDS011;18201;50.978;7.034;2023-03-24T01:40:06;5.72;;;2.70;;
31596;SDS011;18201;50.978;7.034;2023-03-24T01:40:41;3.47;;;2.22;;
31596;SDS011;18201;50.978;7.034;2023-03-24T01:41:13;2.45;;;1.98;;
31596;SDS011;18201;50.978;7.034;2023-03-24T01:41:45;3.35;;;2.67;;
31596;SDS011;18201;50.978;7.034;2023-03-24T01:42:16;5.35;;;2.20;;
31596;SDS011;18201;50.978;7.034;2023-03-24T01:42:48;2.75;;;2.50;;
31596;SDS011;18201;50.978;7.034;2023-03-24T01:43:20;4.88;;;1.90;;
31596;SDS011;18201;50.978;7.034;2023-03-24T01:43:56;3.83;;;2.00;;
31596;SDS011;18201;50.978;7.034;2023-03-24T01:44:28;3.45;;;2.25;;
31596;SDS011;18201;50.978;7.034;2023-03-24T01:45:32;4.22;;;2.15;;
31596;SDS011;18201;50.978;7.034;2023-03-24T01:46:43;2.80;;;2.40;;
31596;SDS011;18201;50.978;7.034;2023-03-24T01:47:15;2.58;;;2.05;;
31596;SDS011;18201;50.978;7.034;2023-03-24T01:47:47;3.58;;;2.25;;
31596;SDS011;18201;50.978;7.034;2023-03-24T01:48:19;2.55;;;2.00;;
31596;SDS011;18201;50.978;7.034;2023-03-24T01:48:54;2.25;;;1.63;;
31596;SDS011;18201;50.978;7.034;2023-03-24T01:49:30;3.58;;;2.08;;
31596;SDS011;18201;50.978;7.034;2023-03-24T01:50:05;3.95;;;3.00;;
31596;SDS011;18201;50.978;7.034;2023-03-24T01:50:38;5.47;;;2.40;;
31596;SDS011;18201;50.978;7.034;2023-03-24T01:51:13;3.13;;;2.30;;
31596;SDS011;18201;50.978;7.034;2023-03-24T01:51:46;2.38;;;2.13;;
31596;SDS011;18201;50.978;7.034;2023-03-24T01:52:21;2.30;;;2.10;;
31596;SDS011;18201;50.978;7.034;2023-03-24T01:52:55;4.32;;;2.42;;
31596;SDS011;18201;50.978;7.034;2023-03-24T01:53:26;2.55;;;2.35;;
31596;SDS011;18201;50.978;7.034;2023-03-24T01:54:01;2.95;;;2.38;;
31596;SDS011;18201;50.978;7.034;2023-03-24T01:54:35;2.22;;;2.00;;
31596;SDS011;18201;50.978;7.034;2023-03-24T01:55:13;3.97;;;2.08;;
31596;SDS011;18201;50.978;7.034;2023-03-24T01:55:47;5.45;;;2.95;;
31596;SDS011;18201;50.978;7.034;2023-03-24T01:56:19;2.40;;;2.20;;
31596;SDS011;18201;50.978;7.034;2023-03-24T01:56:52;4.10;;;2.35;;
31596;SDS011;18201;50.978;7.034;2023-03-24T01:57:28;2.35;;;2.10;;
31596;SDS011;18201;50.978;7.034;2023-03-24T01:58:01;2.08;;;1.80;;
31596;SDS011;18201;50.978;7.034;2023-03-24T01:58:33;3.05;;;2.00;;
31596;SDS011;18201;50.978;7.034;2023-03-24T01:59:09;2.50;;;2.30;;
31596;SDS011;18201;50.978;7.034;2023-03-24T01:59:43;3.35;;;2.40;;
31596;SDS011;18201;50.978;7.034;2023-03-24T02:00:18;3.83;;;2.13;;
31596;SDS011;18201;50.978;7.034;2023-03-24T02:00:51;3.13;;;2.35;;
31596;SDS011;18201;50.978;7.034;2023-03-24T02:01:22;2.50;;;2.30;;
31596;SDS011;18201;50.978;7.034;2023-03-24T02:01:59;3.15;;;2.22;;
31596;SDS011;18201;50.978;7.034;2023-03-24T02:02:33;3.08;;;2.05;;
31596;SDS011;18201;50.978;7.034;2023-03-24T02:03:06;3.92;;;2.33;;
31596;SDS011;18201;50.978;7.034;2023-03-24T02:03:39;5.00;;;2.10;;
31596;SDS011;18201;50.978;7.034;2023-03-24T02:04:12;2.63;;;2.30;;
31596;SDS011;18201;50.978;7.034;2023-03-24T02:04:45;4.10;;;2.70;;
31596;SDS011;18201;50.978;7.034;2023-03-24T02:05:20;2.50;;;2.30;;
31596;SDS011;18201;50.978;7.034;2023-03-24T02:05:56;4.28;;;2.30;;
31596;SDS011;18201;50.978;7.034;2023-03-24T02:06:27;3.22;;;2.20;;
31596;SDS011;18201;50.978;7.034;2023-03-24T02:07:00;3.67;;;2.55;;
31596;SDS011;18201;50.978;7.034;2023-03-24T02:07:39;5.25;;;2.42;;
31596;SDS011;18201;50.978;7.034;2023-03-24T02:08:16;4.07;;;2.10;;
31596;SDS011;18201;50.978;7.034;2023-03-24T02:08:51;3.10;;;2.25;;
31596;SDS011;18201;50.978;7.034;2023-03-24T02:09:25;2.60;;;2.40;;
31596;SDS011;18201;50.978;7.034;2023-03-24T02:09:56;2.80;;;2.20;;
31596;SDS011;18201;50.978;7.034;2023-03-24T02:10:27;2.25;;;2.00;;
31596;SDS011;18201;50.978;7.034;2023-03-24T02:11:01;4.18;;;2.20;;
31596;SDS011;18201;50.978;7.034;2023-03-24T02:11:33;2.38;;;2.15;;
31596;SDS011;18201;50.978;7.034;2023-03-24T02:12:06;4.45;;;2.22;;
31596;SDS011;18201;50.978;7.034;2023-03-24T02:12:38;2.72;;;2.10;;
31596;SDS011;18201;50.978;7.034;2023-03-24T02:13:10;4.32;;;2.25;;
31596;SDS011;18201;50.978;7.034;2023-03-24T02:13:41;3.08;;;2.78;;
31596;SDS011;18201;50.978;7.034;2023-03-24T02:14:13;2.35;;;1.95;;
31596;SDS011;18201;50.978;7.034;2023-03-24T02:14:46;3.17;;;2.38;;
31596;SDS011;18201;50.978;7.034;2023-03-24T02:15:17;2.00;;;1.90;;
31596;SDS011;18201;50.978;7.034;2023-03-24T02:16:02;3.20;;;2.10;;
31596;SDS011;18201;50.978;7.034;2023-03-24T02:16:50;2.80;;;2.05;;
31596;SDS011;18201;50.978;7.034;2023-03-24T02:17:43;2.25;;;2.05;;
31596;SDS011;18201;50.978;7.034;2023-03-24T02:18:24;2.45;;;2.00;;
31596;SDS011;18201;50.978;7.034;2023-03-24T02:19:23;2.65;;;2.13;;
31596;SDS011;18201;50.978;7.034;2023-03-24T02:21:32;3.53;;;2.08;;
31596;SDS011;18201;50.978;7.034;2023-03-24T02:22:33;3.88;;;2.30;;
31596;SDS011;18201;50.978;7.034;2023-03-24T02:23:33;4.05;;;2.35;;
31596;SDS011;18201;50.978;7.034;2023-03-24T02:26:58;3.65;;;2.75;;
31596;SDS011;18201;50.978;7.034;2023-03-24T02:28:42;4.18;;;2.25;;
31596;SDS011;18201;50.978;7.034;2023-03-24T02:29:36;3.70;;;2.28;;
31596;SDS011;18201;50.978;7.034;2023-03-24T02:31:49;3.95;;;2.50;;
31596;SDS011;18201;50.978;7.034;2023-03-24T02:32:42;2.40;;;2.20;;
31596;SDS011;18201;50.978;7.034;2023-03-24T02:40:22;3.30;;;2.22;;
31596;SDS011;18201;50.978;7.034;2023-03-24T02:40:58;4.68;;;2.55;;
31596;SDS011;18201;50.978;7.034;2023-03-24T02:41:38;2.90;;;2.40;;
31596;SDS011;18201;50.978;7.034;2023-03-24T02:42:24;2.30;;;1.95;;
31596;SDS011;18201;50.978;7.034;2023-03-24T02:43:12;2.53;;;2.30;;
31596;SDS011;18201;50.978;7.034;2023-03-24T02:43:54;2.83;;;2.40;;
31596;SDS011;18201;50.978;7.034;2023-03-24T02:44:33;3.20;;;2.17;;
31596;SDS011;18201;50.978;7.034;2023-03-24T02:45:15;2.78;;;2.20;;
31596;SDS011;18201;50.978;7.034;2023-03-24T02:45:58;3.72;;;2.40;;
31596;SDS011;18201;50.978;7.034;2023-03-24T02:46:37;5.82;;;2.53;;
31596;SDS011;18201;50.978;7.034;2023-03-24T02:47:14;3.63;;;2.75;;
31596;SDS011;18201;50.978;7.034;2023-03-24T02:47:53;2.33;;;2.10;;
31596;SDS011;18201;50.978;7.034;2023-03-24T02:48:36;3.80;;;2.60;;
31596;SDS011;18201;50.978;7.034;2023-03-24T02:49:16;2.40;;;2.20;;
31596;SDS011;18201;50.978;7.034;2023-03-24T02:49:55;3.45;;;2.70;;
31596;SDS011;18201;50.978;7.034;2023-03-24T02:50:32;3.40;;;2.30;;
31596;SDS011;18201;50.978;7.034;2023-03-24T02:51:09;2.88;;;2.22;;
31596;SDS011;18201;50.978;7.034;2023-03-24T02:51:47;3.03;;;2.38;;
31596;SDS011;18201;50.978;7.034;2023-03-24T02:52:26;3.53;;;2.70;;
31596;SDS011;18201;50.978;7.034;2023-03-24T02:53:05;9.20;;;2.70;;
31596;SDS011;18201;50.978;7.034;2023-03-24T02:53:44;2.35;;;2.15;;
31596;SDS011;18201;50.978;7.034;2023-03-24T02:54:25;6.22;;;2.50;;
31596;SDS011;18201;50.978;7.034;2023-03-24T02:55:03;3.15;;;2.88;;
31596;SDS011;18201;50.978;7.034;2023-03-24T02:55:41;2.97;;;2.67;;
31596;SDS011;18201;50.978;7.034;2023-03-24T02:56:17;3.50;;;2.80;;
31596;SDS011;18201;50.978;7.034;2023-03-24T02:56:53;2.97;;;2.72;;
31596;SDS011;18201;50.978;7.034;2023-03-24T02:57:31;3.75;;;2.80;;
31596;SDS011;18201;50.978;7.034;2023-03-24T02:58:06;4.28;;;3.00;;
31596;SDS011;18201;50.978;7.034;2023-03-24T02:58:44;2.75;;;2.38;;
31596;SDS011;18201;50.978;7.034;2023-03-24T02:59:20;3.78;;;2.75;;
31596;SDS011;18201;50.978;7.034;2023-03-24T03:00:00;2.95;;;2.53;;
31596;SDS011;18201;50.978;7.034;2023-03-24T03:00:38;3.60;;;2.83;;
31596;SDS011;18201;50.978;7.034;2023-03-24T03:01:17;2.72;;;2.53;;
31596;SDS011;18201;50.978;7.034;2023-03-24T03:02:00;2.92;;;2.67;;
31596;SDS011;18201;50.978;7.034;2023-03-24T03:02:36;2.42;;;2.22;;
31596;SDS011;18201;50.978;7.034;2023-03-24T03:03:16;2.60;;;2.40;;
31596;SDS011;18201;50.978;7.034;2023-03-24T03:03:52;4.20;;;2.85;;
31596;SDS011;18201;50.978;7.034;2023-03-24T03:04:25;3.60;;;2.85;;
31596;SDS011;18201;50.978;7.034;2023-03-24T03:05:03;3.03;;;2.80;;
31596;SDS011;18201;50.978;7.034;2023-03-24T03:05:38;3.83;;;2.70;;
31596;SDS011;18201;50.978;7.034;2023-03-24T03:06:14;2.90;;;2.70;;
31596;SDS011;18201;50.978;7.034;2023-03-24T03:06:50;3.67;;;3.35;;
31596;SDS011;18201;50.978;7.034;2023-03-24T03:07:24;4.72;;;3.13;;
31596;SDS011;18201;50.978;7.034;2023-03-24T03:08:03;2.72;;;2.30;;
31596;SDS011;18201;50.978;7.034;2023-03-24T03:08:38;3.30;;;2.70;;
31596;SDS011;18201;50.978;7.034;2023-03-24T03:09:11;3.92;;;2.90;;
31596;SDS011;18201;50.978;7.034;2023-03-24T03:09:46;5.45;;;3.08;;
31596;SDS011;18201;50.978;7.034;2023-03-24T03:10:26;3.40;;;2.90;;
31596;SDS011;18201;50.978;7.034;2023-03-24T03:11:00;3.97;;;2.85;;
31596;SDS011;18201;50.978;7.034;2023-03-24T03:11:34;3.58;;;2.97;;
31596;SDS011;18201;50.978;7.034;2023-03-24T03:12:07;3.28;;;2.97;;
31596;SDS011;18201;50.978;7.034;2023-03-24T03:12:41;3.47;;;2.45;;
31596;SDS011;18201;50.978;7.034;2023-03-24T03:13:18;2.95;;;2.60;;
31596;SDS011;18201;50.978;7.034;2023-03-24T03:13:54;3.72;;;2.85;;
31596;SDS011;18201;50.978;7.034;2023-03-24T03:14:29;3.45;;;3.00;;
31596;SDS011;18201;50.978;7.034;2023-03-24T03:15:06;3.03;;;2.83;;
31596;SDS011;18201;50.978;7.034;2023-03-24T03:15:42;4.45;;;3.40;;
31596;SDS011;18201;50.978;7.034;2023-03-24T03:16:18;4.38;;;3.17;;
31596;SDS011;18201;50.978;7.034;2023-03-24T03:16:54;4.78;;;2.97;;
31596;SDS011;18201;50.978;7.034;2023-03-24T03:17:29;4.05;;;2.92;;
31596;SDS011;18201;50.978;7.034;2023-03-24T03:18:05;2.90;;;2.65;;
31596;SDS011;18201;50.978;7.034;2023-03-24T03:18:44;3.20;;;2.80;;
31596;SDS011;18201;50.978;7.034;2023-03-24T03:19:21;4.47;;;2.88;;
31596;SDS011;18201;50.978;7.034;2023-03-24T03:19:57;3.05;;;2.67;;
31596;SDS011;18201;50.978;7.034;2023-03-24T03:20:37;2.75;;;2.55;;
31596;SDS011;18201;50.978;7.034;2023-03-24T03:21:12;3.97;;;2.80;;
31596;SDS011;18201;50.978;7.034;2023-03-24T03:21:47;3.17;;;2.58;;
31596;SDS011;18201;50.978;7.034;2023-03-24T03:22:21;3.55;;;3.25;;
31596;SDS011;18201;50.978;7.034;2023-03-24T03:22:56;3.42;;;2.97;;
31596;SDS011;18201;50.978;7.034;2023-03-24T03:23:33;4.07;;;2.58;;
31596;SDS011;18201;50.978;7.034;2023-03-24T03:24:09;3.03;;;2.78;;
31596;SDS011;18201;50.978;7.034;2023-03-24T03:24:45;3.10;;;2.80;;
31596;SDS011;18201;50.978;7.034;2023-03-24T03:25:20;3.60;;;3.17;;
31596;SDS011;18201;50.978;7.034;2023-03-24T03:25:56;5.72;;;3.22;;
31596;SDS011;18201;50.978;7.034;2023-03-24T03:26:35;3.70;;;3.00;;
31596;SDS011;18201;50.978;7.034;2023-03-24T03:27:07;3.88;;;2.97;;
31596;SDS011;18201;50.978;7.034;2023-03-24T03:27:43;4.38;;;3.65;;
31596;SDS011;18201;50.978;7.034;2023-03-24T03:28:16;4.93;;;3.30;;
31596;SDS011;18201;50.978;7.034;2023-03-24T03:28:51;3.13;;;2.83;;
31596;SDS011;18201;50.978;7.034;2023-03-24T03:29:27;4.78;;;3.17;;
31596;SDS011;18201;50.978;7.034;2023-03-24T03:30:04;3.45;;;3.15;;
31596;SDS011;18201;50.978;7.034;2023-03-24T03:30:38;5.15;;;3.35;;
31596;SDS011;18201;50.978;7.034;2023-03-24T03:31:15;3.72;;;3.30;;
31596;SDS011;18201;50.978;7.034;2023-03-24T03:31:50;4.53;;;3.30;;
31596;SDS011;18201;50.978;7.034;2023-03-24T03:32:28;6.18;;;3.63;;
31596;SDS011;18201;50.978;7.034;2023-03-24T03:33:05;7.03;;;3.13;;
31596;SDS011;18201;50.978;7.034;2023-03-24T03:33:43;4.65;;;3.28;;
31596;SDS011;18201;50.978;7.034;2023-03-24T03:34:21;5.95;;;3.55;;
31596;SDS011;18201;50.978;7.034;2023-03-24T03:35:04;4.80;;;3.33;;
31596;SDS011;18201;50.978;7.034;2023-03-24T03:35:39;3.88;;;3.15;;
31596;SDS011;18201;50.978;7.034;2023-03-24T03:36:16;5.53;;;3.70;;
31596;SDS011;18201;50.978;7.034;2023-03-24T03:36:52;3.83;;;3.53;;
31596;SDS011;18201;50.978;7.034;2023-03-24T03:37:29;4.10;;;3.65;;
31596;SDS011;18201;50.978;7.034;2023-03-24T03:38:08;3.85;;;2.92;;
31596;SDS011;18201;50.978;7.034;2023-03-24T03:38:46;3.88;;;3.58;;
31596;SDS011;18201;50.978;7.034;2023-03-24T03:39:24;3.42;;;3.13;;
31596;SDS011;18201;50.978;7.034;2023-03-24T03:40:00;7.13;;;3.13;;
31596;SDS011;18201;50.978;7.034;2023-03-24T03:40:35;4.05;;;3.42;;
31596;SDS011;18201;50.978;7.034;2023-03-24T03:41:12;3.67;;;3.38;;
31596;SDS011;18201;50.978;7.034;2023-03-24T03:41:45;3.50;;;3.17;;
31596;SDS011;18201;50.978;7.034;2023-03-24T03:42:17;3.78;;;3.38;;
31596;SDS011;18201;50.978;7.034;2023-03-24T03:42:48;4.15;;;3.08;;
31596;SDS011;18201;50.978;7.034;2023-03-24T03:43:20;5.78;;;3.33;;
31596;SDS011;18201;50.978;7.034;2023-03-24T03:43:52;3.58;;;3.28;;